createdAt,value
2022-09-02T00:02:29.504Z,23.80
2022-09-02T00:04:57.109Z,23.80
2022-09-02T00:07:25.909Z,23.80
2022-09-02T00:09:55.370Z,23.70
2022-09-02T00:12:22.392Z,23.70
2022-09-02T00:14:52.669Z,23.70
2022-09-02T00:17:19.570Z,23.70
2022-09-02T00:19:46.434Z,23.60
2022-09-02T00:22:14.003Z,23.60
2022-09-02T00:24:40.895Z,23.50
2022-09-02T00:27:09.009Z,23.60
2022-09-02T00:29:35.873Z,23.50
2022-09-02T00:32:03.024Z,23.50
2022-09-02T00:34:32.978Z,23.50
2022-09-02T00:37:00.988Z,23.40
2022-09-02T00:39:27.711Z,23.50
2022-09-02T00:41:54.745Z,23.40
2022-09-02T00:44:26.300Z,23.40
2022-09-02T00:46:54.507Z,23.40
2022-09-02T00:49:30.222Z,23.30
2022-09-02T00:52:29.574Z,23.30
2022-09-02T00:55:21.222Z,23.30
2022-09-02T00:57:57.583Z,23.20
2022-09-02T01:00:34.683Z,23.20
2022-09-02T01:03:06.602Z,23.20
2022-09-02T01:05:38.630Z,23.20
2022-09-02T01:08:09.754Z,23.20
2022-09-02T01:10:37.716Z,23.10
2022-09-02T01:13:10.038Z,23.10
2022-09-02T01:15:44.405Z,23.10
2022-09-02T01:18:17.054Z,23.10
2022-09-02T01:20:44.815Z,23.00
2022-09-02T01:23:16.380Z,23.00
2022-09-02T01:25:46.591Z,23.00
2022-09-02T01:28:20.554Z,22.90
2022-09-02T01:30:51.206Z,22.90
2022-09-02T01:33:20.933Z,22.90
2022-09-02T01:35:50.028Z,22.90
2022-09-02T01:38:17.692Z,22.90
2022-09-02T01:40:45.173Z,22.80
2022-09-02T01:43:24.998Z,22.80
2022-09-02T01:45:55.477Z,22.80
2022-09-02T01:48:22.509Z,22.80
2022-09-02T01:50:56.791Z,22.80
2022-09-02T01:53:25.019Z,22.70
2022-09-02T01:55:52.333Z,22.70
2022-09-02T01:58:20.950Z,22.70
2022-09-02T02:00:49.330Z,22.70
2022-09-02T02:03:17.138Z,22.70
2022-09-02T02:05:46.249Z,22.60
2022-09-02T02:08:13.418Z,22.60
2022-09-02T02:10:43.115Z,22.60
2022-09-02T02:13:10.783Z,22.60
2022-09-02T02:15:40.229Z,22.50
2022-09-02T02:18:08.261Z,22.50
2022-09-02T02:20:37.614Z,22.50
2022-09-02T02:23:05.845Z,22.40
2022-09-02T02:25:32.821Z,22.40
2022-09-02T02:28:02.508Z,22.40
2022-09-02T02:30:32.619Z,22.40
2022-09-02T02:32:59.691Z,22.40
2022-09-02T02:35:36.153Z,22.30
2022-09-02T02:38:04.288Z,22.30
2022-09-02T02:40:32.814Z,22.30
2022-09-02T02:42:59.780Z,22.30
2022-09-02T02:45:29.077Z,22.20
2022-09-02T02:47:55.938Z,22.20
2022-09-02T02:50:25.937Z,22.20
2022-09-02T02:53:03.386Z,22.20
2022-09-02T02:55:30.668Z,22.20
2022-09-02T02:57:59.645Z,22.10
2022-09-02T03:00:32.308Z,22.10
2022-09-02T03:03:03.454Z,22.10
2022-09-02T03:05:31.576Z,22.10
2022-09-02T03:07:58.610Z,22.10
2022-09-02T03:10:28.538Z,22.00
2022-09-02T03:12:55.807Z,22.00
2022-09-02T03:15:23.014Z,22.00
2022-09-02T03:17:52.234Z,22.00
2022-09-02T03:20:21.440Z,21.90
2022-09-02T03:22:52.992Z,21.90
2022-09-02T03:25:21.301Z,21.90
2022-09-02T03:27:49.174Z,21.90
2022-09-02T03:30:21.776Z,21.90
2022-09-02T03:32:52.886Z,21.80
2022-09-02T03:35:23.276Z,21.80
2022-09-02T03:37:52.194Z,21.80
2022-09-02T03:40:23.476Z,21.70
2022-09-02T03:42:51.140Z,21.70
2022-09-02T03:45:18.318Z,21.70
2022-09-02T03:47:51.192Z,21.70
2022-09-02T03:50:19.490Z,21.70
2022-09-02T03:52:46.325Z,21.70
2022-09-02T03:55:24.220Z,21.60
2022-09-02T03:57:52.006Z,21.60
2022-09-02T04:00:28.203Z,21.60
2022-09-02T04:02:56.118Z,21.60
2022-09-02T04:05:24.137Z,21.50
2022-09-02T04:07:53.517Z,21.50
2022-09-02T04:10:23.068Z,21.50
2022-09-02T04:12:51.408Z,21.50
2022-09-02T04:15:19.949Z,21.50
2022-09-02T04:17:46.830Z,21.50
2022-09-02T04:20:14.753Z,21.50
2022-09-02T04:22:41.920Z,21.40
2022-09-02T04:25:14.226Z,21.40
2022-09-02T04:27:41.435Z,21.40
2022-09-02T04:30:09.710Z,21.40
2022-09-02T04:32:40.619Z,21.40
2022-09-02T04:35:09.156Z,21.40
2022-09-02T04:37:38.827Z,21.30
2022-09-02T04:40:08.900Z,21.30
2022-09-02T04:42:35.918Z,21.30
2022-09-02T04:45:07.769Z,21.30
2022-09-02T04:47:37.016Z,21.20
2022-09-02T04:50:07.764Z,21.20
2022-09-02T04:52:34.741Z,21.30
2022-09-02T04:55:04.681Z,21.30
2022-09-02T04:57:33.953Z,21.30
2022-09-02T05:00:04.955Z,21.20
2022-09-02T05:02:34.257Z,21.20
2022-09-02T05:05:04.203Z,21.30
2022-09-02T05:07:31.665Z,21.30
2022-09-02T05:10:00.842Z,21.30
2022-09-02T05:12:28.250Z,21.20
2022-09-02T05:14:57.189Z,21.20
2022-09-02T05:17:25.124Z,21.20
2022-09-02T05:19:52.027Z,21.20
2022-09-02T05:22:22.106Z,21.20
2022-09-02T05:25:05.571Z,21.10
2022-09-02T05:27:33.609Z,21.10
2022-09-02T05:30:06.094Z,21.10
2022-09-02T05:32:37.563Z,21.10
2022-09-02T05:35:07.731Z,21.10
2022-09-02T05:37:37.123Z,21.10
2022-09-02T05:40:08.080Z,21.10
2022-09-02T05:42:35.634Z,21.10
2022-09-02T05:45:05.049Z,21.10
2022-09-02T05:47:33.568Z,21.10
2022-09-02T05:50:01.679Z,21.10
2022-09-02T05:52:31.271Z,21.00
2022-09-02T05:54:58.133Z,21.00
2022-09-02T05:57:27.676Z,21.00
2022-09-02T05:59:56.896Z,21.10
2022-09-02T06:02:26.600Z,21.00
2022-09-02T06:04:56.504Z,21.10
